Sun City, Arizona
Current Conditions -  °F | °C
As of 1:48 PM on Tuesday 25 Nov 2014 (Local Time) from KGEU Reporting Station
Clear Clear  
Wind Chill: 66°   Ceiling: Unl
Heat Index: 66°   Visibility: 20mi
Dew Point:   Wind: 0mph
Humidity: 8%   Direction: NA
Pressure: 30.36"   Gusts: NA
Location:  33.6°N, 112.28°W
Report Text: KGEU 252048Z 00000KT 20SM SKC 19/M16 A3036
Loading
Personal Weather Stations






























Interactive Weather Map New forecast layout! Learn more

10-Day Weather Forecast

Advertisements
Track Severe Weather on mobile